sensor_id;sensor_type;location;lat;lon;timestamp;P1;durP1;ratioP1;P2;durP2;ratioP2
85129;SDS011;75492;49.310;20.046;2024-02-26T00:02:08;19.77;;;12.07;;
85129;SDS011;75492;49.310;20.046;2024-02-26T00:07:09;18.85;;;11.07;;
85129;SDS011;75492;49.310;20.046;2024-02-26T00:12:10;10.60;;;5.82;;
85129;SDS011;75492;49.310;20.046;2024-02-26T00:17:13;12.43;;;5.65;;
85129;SDS011;75492;49.310;20.046;2024-02-26T00:22:15;6.47;;;3.95;;
85129;SDS011;75492;49.310;20.046;2024-02-26T00:27:16;8.65;;;4.05;;
85129;SDS011;75492;49.310;20.046;2024-02-26T00:32:19;7.95;;;4.20;;
85129;SDS011;75492;49.310;20.046;2024-02-26T00:37:20;5.20;;;2.70;;
85129;SDS011;75492;49.310;20.046;2024-02-26T00:42:22;4.22;;;2.63;;
85129;SDS011;75492;49.310;20.046;2024-02-26T00:47:24;3.83;;;1.77;;
85129;SDS011;75492;49.310;20.046;2024-02-26T00:52:26;3.72;;;1.58;;
85129;SDS011;75492;49.310;20.046;2024-02-26T00:57:27;1.80;;;1.02;;
85129;SDS011;75492;49.310;20.046;2024-02-26T01:02:30;1.95;;;1.20;;
85129;SDS011;75492;49.310;20.046;2024-02-26T01:07:31;4.00;;;1.70;;
85129;SDS011;75492;49.310;20.046;2024-02-26T01:12:33;3.35;;;2.30;;
85129;SDS011;75492;49.310;20.046;2024-02-26T01:17:35;10.77;;;7.68;;
85129;SDS011;75492;49.310;20.046;2024-02-26T01:22:37;11.77;;;7.13;;
85129;SDS011;75492;49.310;20.046;2024-02-26T01:27:38;9.95;;;6.63;;
85129;SDS011;75492;49.310;20.046;2024-02-26T01:32:41;9.38;;;6.20;;
85129;SDS011;75492;49.310;20.046;2024-02-26T01:37:43;4.60;;;2.92;;
85129;SDS011;75492;49.310;20.046;2024-02-26T01:42:45;4.47;;;2.70;;
85129;SDS011;75492;49.310;20.046;2024-02-26T01:47:48;4.28;;;2.10;;
85129;SDS011;75492;49.310;20.046;2024-02-26T01:52:51;7.05;;;4.63;;
85129;SDS011;75492;49.310;20.046;2024-02-26T01:57:53;1.40;;;0.80;;
85129;SDS011;75492;49.310;20.046;2024-02-26T02:02:57;2.97;;;1.75;;
85129;SDS011;75492;49.310;20.046;2024-02-26T02:07:58;10.57;;;7.03;;
85129;SDS011;75492;49.310;20.046;2024-02-26T02:13:00;12.30;;;7.70;;
85129;SDS011;75492;49.310;20.046;2024-02-26T02:18:03;19.42;;;11.15;;
85129;SDS011;75492;49.310;20.046;2024-02-26T02:23:06;14.82;;;9.23;;
85129;SDS011;75492;49.310;20.046;2024-02-26T02:28:08;16.60;;;9.07;;
85129;SDS011;75492;49.310;20.046;2024-02-26T02:33:10;14.02;;;7.75;;
85129;SDS011;75492;49.310;20.046;2024-02-26T02:38:13;10.50;;;7.18;;
85129;SDS011;75492;49.310;20.046;2024-02-26T02:43:14;10.60;;;6.25;;
85129;SDS011;75492;49.310;20.046;2024-02-26T02:48:15;8.02;;;5.57;;
85129;SDS011;75492;49.310;20.046;2024-02-26T02:53:18;10.88;;;7.32;;
85129;SDS011;75492;49.310;20.046;2024-02-26T02:58:20;13.60;;;9.68;;
85129;SDS011;75492;49.310;20.046;2024-02-26T03:03:21;14.40;;;8.77;;
85129;SDS011;75492;49.310;20.046;2024-02-26T03:08:24;12.43;;;8.27;;
85129;SDS011;75492;49.310;20.046;2024-02-26T03:13:25;11.52;;;6.88;;
85129;SDS011;75492;49.310;20.046;2024-02-26T03:18:26;8.88;;;5.90;;
85129;SDS011;75492;49.310;20.046;2024-02-26T03:23:29;11.20;;;5.93;;
85129;SDS011;75492;49.310;20.046;2024-02-26T03:28:30;7.45;;;4.50;;
85129;SDS011;75492;49.310;20.046;2024-02-26T03:33:32;7.57;;;4.57;;
85129;SDS011;75492;49.310;20.046;2024-02-26T03:38:36;6.45;;;3.60;;
85129;SDS011;75492;49.310;20.046;2024-02-26T03:43:38;5.45;;;2.80;;
85129;SDS011;75492;49.310;20.046;2024-02-26T03:48:39;9.95;;;3.67;;
85129;SDS011;75492;49.310;20.046;2024-02-26T03:53:42;5.63;;;2.97;;
85129;SDS011;75492;49.310;20.046;2024-02-26T03:58:43;6.95;;;2.85;;
85129;SDS011;75492;49.310;20.046;2024-02-26T04:03:45;3.80;;;2.25;;
85129;SDS011;75492;49.310;20.046;2024-02-26T04:08:48;3.75;;;2.38;;
85129;SDS011;75492;49.310;20.046;2024-02-26T04:13:49;6.95;;;3.22;;
85129;SDS011;75492;49.310;20.046;2024-02-26T04:18:50;9.43;;;5.97;;
85129;SDS011;75492;49.310;20.046;2024-02-26T04:23:53;6.40;;;3.47;;
85129;SDS011;75492;49.310;20.046;2024-02-26T04:28:54;7.35;;;4.22;;
85129;SDS011;75492;49.310;20.046;2024-02-26T04:33:56;4.30;;;2.78;;
85129;SDS011;75492;49.310;20.046;2024-02-26T04:38:59;4.47;;;2.70;;
85129;SDS011;75492;49.310;20.046;2024-02-26T04:44:00;5.47;;;2.40;;
85129;SDS011;75492;49.310;20.046;2024-02-26T04:49:02;7.38;;;3.65;;
85129;SDS011;75492;49.310;20.046;2024-02-26T04:54:04;6.75;;;4.57;;
85129;SDS011;75492;49.310;20.046;2024-02-26T04:59:06;7.78;;;4.40;;
85129;SDS011;75492;49.310;20.046;2024-02-26T05:04:07;7.28;;;5.53;;
85129;SDS011;75492;49.310;20.046;2024-02-26T05:09:10;9.07;;;5.75;;
85129;SDS011;75492;49.310;20.046;2024-02-26T05:14:11;7.60;;;4.43;;
85129;SDS011;75492;49.310;20.046;2024-02-26T05:19:13;4.43;;;2.92;;
85129;SDS011;75492;49.310;20.046;2024-02-26T05:24:15;5.43;;;3.90;;
85129;SDS011;75492;49.310;20.046;2024-02-26T05:29:17;6.50;;;3.67;;
85129;SDS011;75492;49.310;20.046;2024-02-26T05:34:18;5.05;;;3.42;;
85129;SDS011;75492;49.310;20.046;2024-02-26T05:39:21;10.10;;;5.20;;
85129;SDS011;75492;49.310;20.046;2024-02-26T05:44:22;9.02;;;6.43;;
85129;SDS011;75492;49.310;20.046;2024-02-26T05:49:26;4.07;;;2.25;;
85129;SDS011;75492;49.310;20.046;2024-02-26T05:54:29;2.85;;;1.55;;
85129;SDS011;75492;49.310;20.046;2024-02-26T05:59:30;5.45;;;3.33;;
85129;SDS011;75492;49.310;20.046;2024-02-26T06:04:32;5.70;;;3.20;;
85129;SDS011;75492;49.310;20.046;2024-02-26T06:09:34;4.60;;;3.05;;
85129;SDS011;75492;49.310;20.046;2024-02-26T06:14:36;6.60;;;3.55;;
85129;SDS011;75492;49.310;20.046;2024-02-26T06:19:37;9.13;;;5.07;;
85129;SDS011;75492;49.310;20.046;2024-02-26T06:24:40;8.23;;;4.30;;
85129;SDS011;75492;49.310;20.046;2024-02-26T06:29:41;4.68;;;1.83;;
85129;SDS011;75492;49.310;20.046;2024-02-26T06:34:43;2.38;;;1.60;;
85129;SDS011;75492;49.310;20.046;2024-02-26T06:39:45;3.88;;;2.42;;
85129;SDS011;75492;49.310;20.046;2024-02-26T06:44:47;2.95;;;1.60;;
85129;SDS011;75492;49.310;20.046;2024-02-26T06:49:48;2.60;;;1.48;;
85129;SDS011;75492;49.310;20.046;2024-02-26T06:54:51;2.60;;;1.48;;
85129;SDS011;75492;49.310;20.046;2024-02-26T06:59:53;2.25;;;1.20;;
85129;SDS011;75492;49.310;20.046;2024-02-26T07:04:54;2.53;;;1.70;;
85129;SDS011;75492;49.310;20.046;2024-02-26T07:09:57;3.45;;;2.08;;
85129;SDS011;75492;49.310;20.046;2024-02-26T07:14:58;3.00;;;1.70;;
85129;SDS011;75492;49.310;20.046;2024-02-26T07:20:00;2.38;;;1.50;;
85129;SDS011;75492;49.310;20.046;2024-02-26T07:25:03;16.45;;;10.02;;
85129;SDS011;75492;49.310;20.046;2024-02-26T07:30:05;32.20;;;20.38;;
85129;SDS011;75492;49.310;20.046;2024-02-26T07:35:07;25.33;;;15.23;;
85129;SDS011;75492;49.310;20.046;2024-02-26T07:40:11;30.80;;;15.43;;
85129;SDS011;75492;49.310;20.046;2024-02-26T07:45:13;26.80;;;15.68;;
85129;SDS011;75492;49.310;20.046;2024-02-26T07:50:14;16.90;;;11.10;;
85129;SDS011;75492;49.310;20.046;2024-02-26T07:55:17;15.40;;;10.90;;
85129;SDS011;75492;49.310;20.046;2024-02-26T08:00:18;11.00;;;6.82;;
85129;SDS011;75492;49.310;20.046;2024-02-26T08:05:20;5.75;;;2.33;;
85129;SDS011;75492;49.310;20.046;2024-02-26T08:10:23;4.82;;;1.33;;
85129;SDS011;75492;49.310;20.046;2024-02-26T08:15:24;4.50;;;1.58;;
85129;SDS011;75492;49.310;20.046;2024-02-26T08:20:26;2.30;;;1.30;;
85129;SDS011;75492;49.310;20.046;2024-02-26T08:25:28;3.70;;;1.80;;
85129;SDS011;75492;49.310;20.046;2024-02-26T08:30:30;3.75;;;2.08;;
85129;SDS011;75492;49.310;20.046;2024-02-26T08:35:31;2.65;;;1.60;;
85129;SDS011;75492;49.310;20.046;2024-02-26T08:40:34;2.25;;;1.40;;
85129;SDS011;75492;49.310;20.046;2024-02-26T08:45:35;2.30;;;1.52;;
85129;SDS011;75492;49.310;20.046;2024-02-26T08:50:37;14.10;;;10.38;;
85129;SDS011;75492;49.310;20.046;2024-02-26T08:55:39;16.10;;;10.95;;
85129;SDS011;75492;49.310;20.046;2024-02-26T09:00:41;21.10;;;15.55;;
85129;SDS011;75492;49.310;20.046;2024-02-26T09:05:42;23.85;;;15.45;;
85129;SDS011;75492;49.310;20.046;2024-02-26T09:10:45;11.45;;;7.88;;
85129;SDS011;75492;49.310;20.046;2024-02-26T09:15:47;8.27;;;4.13;;
85129;SDS011;75492;49.310;20.046;2024-02-26T09:20:48;7.90;;;4.38;;
85129;SDS011;75492;49.310;20.046;2024-02-26T09:25:51;3.85;;;2.17;;
85129;SDS011;75492;49.310;20.046;2024-02-26T09:30:52;4.55;;;2.03;;
85129;SDS011;75492;49.310;20.046;2024-02-26T09:35:53;3.00;;;2.00;;
85129;SDS011;75492;49.310;20.046;2024-02-26T09:40:56;5.25;;;2.42;;
85129;SDS011;75492;49.310;20.046;2024-02-26T09:45:58;3.72;;;1.90;;
85129;SDS011;75492;49.310;20.046;2024-02-26T09:51:00;3.92;;;1.70;;
85129;SDS011;75492;49.310;20.046;2024-02-26T09:56:04;2.33;;;1.40;;
85129;SDS011;75492;49.310;20.046;2024-02-26T10:01:09;3.20;;;1.90;;
85129;SDS011;75492;49.310;20.046;2024-02-26T10:06:13;2.67;;;1.30;;
85129;SDS011;75492;49.310;20.046;2024-02-26T10:11:15;3.05;;;1.67;;
85129;SDS011;75492;49.310;20.046;2024-02-26T10:16:17;4.65;;;2.47;;
85129;SDS011;75492;49.310;20.046;2024-02-26T10:21:20;4.88;;;1.85;;
85129;SDS011;75492;49.310;20.046;2024-02-26T10:26:23;3.90;;;2.30;;
85129;SDS011;75492;49.310;20.046;2024-02-26T10:31:25;94.85;;;33.88;;
85129;SDS011;75492;49.310;20.046;2024-02-26T10:36:26;64.57;;;23.02;;
85129;SDS011;75492;49.310;20.046;2024-02-26T10:41:29;81.93;;;30.38;;
85129;SDS011;75492;49.310;20.046;2024-02-26T10:46:31;47.15;;;20.50;;
85129;SDS011;75492;49.310;20.046;2024-02-26T10:51:32;24.35;;;10.25;;
85129;SDS011;75492;49.310;20.046;2024-02-26T10:56:38;33.05;;;14.05;;
85129;SDS011;75492;49.310;20.046;2024-02-26T11:01:42;14.77;;;5.63;;
85129;SDS011;75492;49.310;20.046;2024-02-26T11:06:44;11.77;;;5.70;;
85129;SDS011;75492;49.310;20.046;2024-02-26T11:11:48;37.10;;;18.52;;
85129;SDS011;75492;49.310;20.046;2024-02-26T11:16:50;37.17;;;26.92;;
85129;SDS011;75492;49.310;20.046;2024-02-26T11:21:52;34.33;;;21.00;;
85129;SDS011;75492;49.310;20.046;2024-02-26T11:26:55;20.27;;;11.85;;
85129;SDS011;75492;49.310;20.046;2024-02-26T11:32:00;25.80;;;15.25;;
85129;SDS011;75492;49.310;20.046;2024-02-26T11:37:08;15.50;;;10.13;;
85129;SDS011;75492;49.310;20.046;2024-02-26T11:42:13;28.33;;;14.77;;
85129;SDS011;75492;49.310;20.046;2024-02-26T11:47:17;12.52;;;6.28;;
85129;SDS011;75492;49.310;20.046;2024-02-26T11:52:20;6.95;;;4.07;;
85129;SDS011;75492;49.310;20.046;2024-02-26T11:57:26;7.18;;;4.32;;
85129;SDS011;75492;49.310;20.046;2024-02-26T12:02:41;8.68;;;4.82;;
85129;SDS011;75492;49.310;20.046;2024-02-26T12:07:46;8.38;;;5.00;;
85129;SDS011;75492;49.310;20.046;2024-02-26T12:12:49;12.50;;;7.25;;
85129;SDS011;75492;49.310;20.046;2024-02-26T12:17:53;13.77;;;6.95;;
85129;SDS011;75492;49.310;20.046;2024-02-26T12:22:55;17.35;;;9.18;;
85129;SDS011;75492;49.310;20.046;2024-02-26T12:27:59;12.40;;;7.13;;
85129;SDS011;75492;49.310;20.046;2024-02-26T12:33:00;10.48;;;5.05;;
85129;SDS011;75492;49.310;20.046;2024-02-26T12:38:02;7.63;;;5.03;;
85129;SDS011;75492;49.310;20.046;2024-02-26T12:43:06;9.55;;;5.07;;
85129;SDS011;75492;49.310;20.046;2024-02-26T12:48:08;8.45;;;4.47;;
85129;SDS011;75492;49.310;20.046;2024-02-26T12:53:10;8.40;;;5.13;;
85129;SDS011;75492;49.310;20.046;2024-02-26T12:58:14;6.93;;;4.05;;
85129;SDS011;75492;49.310;20.046;2024-02-26T13:03:16;7.95;;;4.95;;
85129;SDS011;75492;49.310;20.046;2024-02-26T13:08:18;17.08;;;8.48;;
85129;SDS011;75492;49.310;20.046;2024-02-26T13:13:22;13.57;;;8.00;;
85129;SDS011;75492;49.310;20.046;2024-02-26T13:18:27;19.17;;;11.80;;
85129;SDS011;75492;49.310;20.046;2024-02-26T13:23:28;22.75;;;12.40;;
85129;SDS011;75492;49.310;20.046;2024-02-26T13:28:31;25.83;;;16.63;;
85129;SDS011;75492;49.310;20.046;2024-02-26T13:33:32;21.90;;;12.02;;
85129;SDS011;75492;49.310;20.046;2024-02-26T13:38:34;24.63;;;11.43;;
85129;SDS011;75492;49.310;20.046;2024-02-26T13:43:37;12.82;;;6.45;;
85129;SDS011;75492;49.310;20.046;2024-02-26T13:48:38;18.80;;;10.40;;
85129;SDS011;75492;49.310;20.046;2024-02-26T13:53:40;9.93;;;6.25;;
85129;SDS011;75492;49.310;20.046;2024-02-26T13:58:42;13.45;;;7.50;;
85129;SDS011;75492;49.310;20.046;2024-02-26T14:03:44;13.18;;;8.90;;
85129;SDS011;75492;49.310;20.046;2024-02-26T14:08:46;14.25;;;9.35;;
85129;SDS011;75492;49.310;20.046;2024-02-26T14:13:48;19.23;;;9.52;;
85129;SDS011;75492;49.310;20.046;2024-02-26T14:18:50;16.23;;;9.23;;
85129;SDS011;75492;49.310;20.046;2024-02-26T14:23:51;20.63;;;10.70;;
85129;SDS011;75492;49.310;20.046;2024-02-26T14:28:54;19.77;;;10.13;;
85129;SDS011;75492;49.310;20.046;2024-02-26T14:33:55;13.40;;;7.10;;
85129;SDS011;75492;49.310;20.046;2024-02-26T14:38:57;16.80;;;8.18;;
85129;SDS011;75492;49.310;20.046;2024-02-26T14:44:00;16.05;;;9.52;;
85129;SDS011;75492;49.310;20.046;2024-02-26T14:49:01;15.23;;;8.88;;
85129;SDS011;75492;49.310;20.046;2024-02-26T14:54:03;17.35;;;10.05;;
85129;SDS011;75492;49.310;20.046;2024-02-26T14:59:06;22.73;;;12.10;;
85129;SDS011;75492;49.310;20.046;2024-02-26T15:04:07;25.85;;;14.75;;
85129;SDS011;75492;49.310;20.046;2024-02-26T15:09:08;21.02;;;10.43;;
85129;SDS011;75492;49.310;20.046;2024-02-26T15:14:11;17.63;;;9.15;;
85129;SDS011;75492;49.310;20.046;2024-02-26T15:19:13;20.42;;;10.48;;
85129;SDS011;75492;49.310;20.046;2024-02-26T15:24:14;18.38;;;10.63;;
85129;SDS011;75492;49.310;20.046;2024-02-26T15:29:17;17.67;;;10.35;;
85129;SDS011;75492;49.310;20.046;2024-02-26T15:34:18;17.38;;;11.23;;
85129;SDS011;75492;49.310;20.046;2024-02-26T15:39:20;12.65;;;7.25;;
85129;SDS011;75492;49.310;20.046;2024-02-26T15:44:23;14.52;;;8.18;;
85129;SDS011;75492;49.310;20.046;2024-02-26T15:49:24;19.52;;;8.02;;
85129;SDS011;75492;49.310;20.046;2024-02-26T15:54:25;14.45;;;8.00;;
85129;SDS011;75492;49.310;20.046;2024-02-26T15:59:28;15.07;;;9.18;;
85129;SDS011;75492;49.310;20.046;2024-02-26T16:04:30;15.68;;;9.85;;
85129;SDS011;75492;49.310;20.046;2024-02-26T16:09:31;12.45;;;7.45;;
85129;SDS011;75492;49.310;20.046;2024-02-26T16:14:37;16.67;;;10.90;;
85129;SDS011;75492;49.310;20.046;2024-02-26T16:19:45;15.75;;;9.57;;
85129;SDS011;75492;49.310;20.046;2024-02-26T16:24:46;15.32;;;8.32;;
85129;SDS011;75492;49.310;20.046;2024-02-26T16:29:51;17.58;;;9.63;;
85129;SDS011;75492;49.310;20.046;2024-02-26T16:34:52;13.63;;;8.05;;
85129;SDS011;75492;49.310;20.046;2024-02-26T16:39:53;19.60;;;10.07;;
85129;SDS011;75492;49.310;20.046;2024-02-26T16:44:59;15.20;;;8.05;;
85129;SDS011;75492;49.310;20.046;2024-02-26T16:50:01;17.42;;;9.23;;
85129;SDS011;75492;49.310;20.046;2024-02-26T16:55:02;17.48;;;10.50;;
85129;SDS011;75492;49.310;20.046;2024-02-26T17:00:06;21.13;;;10.57;;
85129;SDS011;75492;49.310;20.046;2024-02-26T17:05:08;31.73;;;17.77;;
85129;SDS011;75492;49.310;20.046;2024-02-26T17:10:10;26.98;;;13.55;;
85129;SDS011;75492;49.310;20.046;2024-02-26T17:15:12;26.23;;;12.40;;
85129;SDS011;75492;49.310;20.046;2024-02-26T17:20:14;15.60;;;9.15;;
85129;SDS011;75492;49.310;20.046;2024-02-26T17:25:15;18.60;;;9.02;;
85129;SDS011;75492;49.310;20.046;2024-02-26T17:30:19;21.50;;;11.75;;
85129;SDS011;75492;49.310;20.046;2024-02-26T17:35:20;16.02;;;9.30;;
85129;SDS011;75492;49.310;20.046;2024-02-26T17:40:21;23.35;;;12.45;;
85129;SDS011;75492;49.310;20.046;2024-02-26T17:45:25;34.08;;;17.00;;
85129;SDS011;75492;49.310;20.046;2024-02-26T17:50:26;35.63;;;20.60;;
85129;SDS011;75492;49.310;20.046;2024-02-26T17:55:27;14.25;;;8.73;;
85129;SDS011;75492;49.310;20.046;2024-02-26T18:00:31;14.35;;;8.30;;
85129;SDS011;75492;49.310;20.046;2024-02-26T18:05:32;17.10;;;9.90;;
85129;SDS011;75492;49.310;20.046;2024-02-26T18:10:35;16.02;;;8.82;;
85129;SDS011;75492;49.310;20.046;2024-02-26T18:16:06;16.05;;;8.48;;
85129;SDS011;75492;49.310;20.046;2024-02-26T18:21:07;11.85;;;7.60;;
85129;SDS011;75492;49.310;20.046;2024-02-26T18:26:08;13.88;;;7.85;;
85129;SDS011;75492;49.310;20.046;2024-02-26T18:31:11;13.82;;;8.32;;
85129;SDS011;75492;49.310;20.046;2024-02-26T18:36:13;13.25;;;7.25;;
85129;SDS011;75492;49.310;20.046;2024-02-26T18:41:17;11.13;;;6.60;;
85129;SDS011;75492;49.310;20.046;2024-02-26T18:46:21;10.88;;;6.57;;
85129;SDS011;75492;49.310;20.046;2024-02-26T18:51:22;10.93;;;6.57;;
85129;SDS011;75492;49.310;20.046;2024-02-26T18:56:23;7.53;;;4.00;;
85129;SDS011;75492;49.310;20.046;2024-02-26T19:01:26;8.43;;;4.47;;
85129;SDS011;75492;49.310;20.046;2024-02-26T19:06:28;8.23;;;4.22;;
85129;SDS011;75492;49.310;20.046;2024-02-26T19:11:30;7.90;;;4.90;;
85129;SDS011;75492;49.310;20.046;2024-02-26T19:16:33;7.72;;;5.35;;
85129;SDS011;75492;49.310;20.046;2024-02-26T19:21:34;11.32;;;5.85;;
85129;SDS011;75492;49.310;20.046;2024-02-26T19:26:36;30.38;;;17.95;;
85129;SDS011;75492;49.310;20.046;2024-02-26T19:31:42;8.60;;;5.10;;
85129;SDS011;75492;49.310;20.046;2024-02-26T19:36:44;12.07;;;4.75;;
85129;SDS011;75492;49.310;20.046;2024-02-26T19:41:45;7.75;;;5.07;;
85129;SDS011;75492;49.310;20.046;2024-02-26T19:46:48;7.28;;;4.95;;
85129;SDS011;75492;49.310;20.046;2024-02-26T19:51:49;10.23;;;5.65;;
85129;SDS011;75492;49.310;20.046;2024-02-26T19:56:51;7.07;;;4.72;;
85129;SDS011;75492;49.310;20.046;2024-02-26T20:01:53;12.60;;;7.45;;
85129;SDS011;75492;49.310;20.046;2024-02-26T20:06:55;9.57;;;6.15;;
85129;SDS011;75492;49.310;20.046;2024-02-26T20:11:56;10.45;;;5.45;;
85129;SDS011;75492;49.310;20.046;2024-02-26T20:16:59;9.40;;;6.38;;
85129;SDS011;75492;49.310;20.046;2024-02-26T20:22:00;10.68;;;5.32;;
85129;SDS011;75492;49.310;20.046;2024-02-26T20:27:02;9.48;;;5.13;;
85129;SDS011;75492;49.310;20.046;2024-02-26T20:32:06;8.70;;;5.10;;
85129;SDS011;75492;49.310;20.046;2024-02-26T20:37:07;11.63;;;5.28;;
85129;SDS011;75492;49.310;20.046;2024-02-26T20:42:09;7.72;;;5.30;;
85129;SDS011;75492;49.310;20.046;2024-02-26T20:47:12;9.13;;;5.82;;
85129;SDS011;75492;49.310;20.046;2024-02-26T20:52:14;14.85;;;7.53;;
85129;SDS011;75492;49.310;20.046;2024-02-26T20:57:15;19.02;;;9.07;;
85129;SDS011;75492;49.310;20.046;2024-02-26T21:02:18;9.98;;;6.07;;
85129;SDS011;75492;49.310;20.046;2024-02-26T21:07:19;8.93;;;5.80;;
85129;SDS011;75492;49.310;20.046;2024-02-26T21:12:20;13.27;;;6.85;;
85129;SDS011;75492;49.310;20.046;2024-02-26T21:17:23;14.20;;;8.65;;
85129;SDS011;75492;49.310;20.046;2024-02-26T21:22:24;10.80;;;6.53;;
85129;SDS011;75492;49.310;20.046;2024-02-26T21:27:26;12.50;;;7.95;;
85129;SDS011;75492;49.310;20.046;2024-02-26T21:32:29;19.15;;;10.48;;
85129;SDS011;75492;49.310;20.046;2024-02-26T21:37:30;11.35;;;6.68;;
85129;SDS011;75492;49.310;20.046;2024-02-26T21:42:31;13.18;;;8.25;;
85129;SDS011;75492;49.310;20.046;2024-02-26T21:47:34;13.00;;;6.85;;
85129;SDS011;75492;49.310;20.046;2024-02-26T21:52:36;16.05;;;10.15;;
85129;SDS011;75492;49.310;20.046;2024-02-26T21:57:38;11.13;;;6.68;;
85129;SDS011;75492;49.310;20.046;2024-02-26T22:02:41;7.53;;;4.38;;
85129;SDS011;75492;49.310;20.046;2024-02-26T22:07:43;9.95;;;4.63;;
85129;SDS011;75492;49.310;20.046;2024-02-26T22:12:44;8.38;;;4.55;;
85129;SDS011;75492;49.310;20.046;2024-02-26T22:17:47;9.23;;;5.72;;
85129;SDS011;75492;49.310;20.046;2024-02-26T22:22:49;7.60;;;5.32;;
85129;SDS011;75492;49.310;20.046;2024-02-26T22:27:50;7.72;;;4.20;;
85129;SDS011;75492;49.310;20.046;2024-02-26T22:32:53;10.30;;;6.80;;
85129;SDS011;75492;49.310;20.046;2024-02-26T22:37:54;9.95;;;5.22;;
85129;SDS011;75492;49.310;20.046;2024-02-26T22:42:55;8.77;;;6.05;;
85129;SDS011;75492;49.310;20.046;2024-02-26T22:47:58;9.32;;;5.85;;
85129;SDS011;75492;49.310;20.046;2024-02-26T22:52:59;8.48;;;5.25;;
85129;SDS011;75492;49.310;20.046;2024-02-26T22:58:01;6.32;;;4.15;;
85129;SDS011;75492;49.310;20.046;2024-02-26T23:03:04;8.35;;;4.45;;
85129;SDS011;75492;49.310;20.046;2024-02-26T23:08:06;7.80;;;4.55;;
85129;SDS011;75492;49.310;20.046;2024-02-26T23:13:07;11.52;;;5.22;;
85129;SDS011;75492;49.310;20.046;2024-02-26T23:18:10;7.88;;;4.75;;
85129;SDS011;75492;49.310;20.046;2024-02-26T23:23:11;7.63;;;4.72;;
85129;SDS011;75492;49.310;20.046;2024-02-26T23:28:13;7.65;;;4.97;;
85129;SDS011;75492;49.310;20.046;2024-02-26T23:33:16;10.63;;;4.50;;
85129;SDS011;75492;49.310;20.046;2024-02-26T23:38:17;9.23;;;5.50;;
85129;SDS011;75492;49.310;20.046;2024-02-26T23:43:18;8.95;;;4.80;;
85129;SDS011;75492;49.310;20.046;2024-02-26T23:48:21;6.97;;;4.97;;
85129;SDS011;75492;49.310;20.046;2024-02-26T23:53:22;8.65;;;4.80;;
85129;SDS011;75492;49.310;20.046;2024-02-26T23:58:24;7.40;;;4.43;;
